Time;durP1;ratioP1;P1;durP2;ratioP2;P2;SDS_P1;SDS_P2;PMS_P1;PMS_P2;Temp;Humidity;BMP_temperature;BMP_pressure;BME280_temperature;BME280_humidity;BME280_pressure;Samples;Min_cycle;Max_cycle;Signal;HPM_P1;HPM_P2
2021/11/02 00:01:48;;;;;;;8.87;4.77;;;8.60;99.90;;;;;;5050966;28;20826;-59
2021/11/02 00:04:15;;;;;;;11.13;4.10;;;8.60;99.90;;;;;;5047847;28;20520;-57
2021/11/02 00:06:42;;;;;;;9.87;5.13;;;8.50;99.90;;;;;;5050164;28;20479;-59
2021/11/02 00:09:22;;;;;;;11.50;5.20;;;8.50;99.90;;;;;;5046736;28;20467;-59
2021/11/02 00:11:49;;;;;;;14.70;7.47;;;8.40;1.00;;;;;;5046109;28;20895;-59
2021/11/02 00:14:17;;;;;;;9.47;4.83;;;8.40;1.00;;;;;;5050230;28;20467;-58
2021/11/02 00:16:48;;;;;;;12.27;6.43;;;8.40;1.00;;;;;;5048087;28;20882;-59
2021/11/02 00:19:15;;;;;;;13.87;6.40;;;8.40;1.00;;;;;;5048306;28;20907;-59
2021/11/02 00:21:46;;;;;;;13.07;6.40;;;8.40;1.00;;;;;;5047320;28;20433;-59
2021/11/02 00:24:15;;;;;;;16.23;8.37;;;8.50;1.00;;;;;;5048448;28;20469;-59
2021/11/02 00:26:43;;;;;;;16.50;7.77;;;8.50;1.00;;;;;;5047399;28;20459;-59
2021/11/02 00:29:12;;;;;;;9.40;5.33;;;8.50;1.00;;;;;;5046060;28;20811;-58
2021/11/02 00:31:43;;;;;;;12.23;5.43;;;8.50;1.00;;;;;;5046991;28;20828;-59
2021/11/02 00:34:12;;;;;;;15.63;7.37;;;8.50;1.00;;;;;;5047723;28;20468;-59
2021/11/02 00:36:39;;;;;;;9.87;6.13;;;8.60;1.00;;;;;;5047103;28;20455;-54
2021/11/02 00:39:09;;;;;;;12.17;5.50;;;8.60;1.00;;;;;;5045995;28;20458;-59
2021/11/02 00:41:36;;;;;;;8.97;4.70;;;8.60;1.00;;;;;;5047453;28;20508;-59
2021/11/02 00:44:04;;;;;;;13.13;5.80;;;8.60;1.00;;;;;;5046947;28;20916;-58
2021/11/02 00:46:34;;;;;;;11.23;5.83;;;8.60;1.00;;;;;;5045463;28;20455;-57
2021/11/02 00:49:03;;;;;;;9.10;4.77;;;8.70;1.00;;;;;;5046068;28;20458;-56
2021/11/02 00:51:30;;;;;;;15.13;4.30;;;8.70;99.90;;;;;;5047441;28;20519;-57
2021/11/02 00:53:57;;;;;;;9.73;3.50;;;8.70;99.90;;;;;;5046201;28;20510;-57
2021/11/02 00:56:25;;;;;;;9.83;4.20;;;8.70;99.90;;;;;;5045830;28;20512;-56
2021/11/02 00:58:54;;;;;;;10.43;4.23;;;8.70;99.90;;;;;;5048241;28;20454;-59
2021/11/02 01:01:21;;;;;;;11.57;4.60;;;8.70;99.90;;;;;;5066387;28;20461;-59
2021/11/02 01:03:48;;;;;;;11.10;3.97;;;8.70;99.90;;;;;;5076677;28;20461;-59
2021/11/02 01:06:17;;;;;;;4.87;2.97;;;8.80;99.90;;;;;;5068505;28;20521;-58
2021/11/02 01:08:44;;;;;;;6.17;4.20;;;8.80;99.90;;;;;;5056957;28;20444;-59
2021/11/02 01:11:11;;;;;;;4.13;2.90;;;8.80;99.90;;;;;;5056984;28;20488;-58
2021/11/02 01:13:38;;;;;;;7.40;3.47;;;8.80;99.90;;;;;;5056470;28;20552;-59
2021/11/02 01:16:08;;;;;;;5.67;3.60;;;8.80;99.90;;;;;;5056729;28;20915;-59
2021/11/02 01:18:37;;;;;;;5.80;3.33;;;8.80;99.90;;;;;;5057181;28;20458;-59
2021/11/02 01:21:04;;;;;;;9.30;2.90;;;8.80;99.90;;;;;;5056685;28;20466;-59
2021/11/02 01:23:33;;;;;;;4.33;2.53;;;8.80;99.90;;;;;;5056662;28;20800;-59
2021/11/02 01:26:00;;;;;;;7.00;3.70;;;8.80;99.90;;;;;;5056433;28;20557;-59
2021/11/02 01:28:30;;;;;;;8.70;3.03;;;8.80;99.90;;;;;;5056589;28;20529;-59
2021/11/02 01:31:03;;;;;;;5.87;3.10;;;8.70;99.90;;;;;;5056191;28;20469;-56
2021/11/02 01:33:30;;;;;;;5.00;2.70;;;8.80;99.90;;;;;;5056203;28;20548;-58
2021/11/02 01:35:57;;;;;;;6.80;2.80;;;8.70;99.90;;;;;;5056074;28;20515;-56
2021/11/02 01:38:24;;;;;;;8.33;3.63;;;8.70;99.90;;;;;;5055838;28;20462;-58
2021/11/02 01:40:54;;;;;;;6.93;2.83;;;8.70;99.90;;;;;;5056643;28;20483;-59
2021/11/02 01:43:22;;;;;;;6.10;3.00;;;8.70;99.90;;;;;;5056133;28;20462;-59
2021/11/02 01:45:50;;;;;;;4.70;3.27;;;8.70;99.90;;;;;;5056150;28;20516;-59
2021/11/02 01:48:19;;;;;;;6.97;3.03;;;8.70;99.90;;;;;;5056734;28;20490;-58
2021/11/02 01:50:46;;;;;;;8.03;3.60;;;8.70;99.90;;;;;;5055689;28;20492;-58
2021/11/02 01:53:14;;;;;;;9.40;3.83;;;8.70;99.90;;;;;;5056097;28;20857;-57
2021/11/02 01:55:41;;;;;;;6.10;3.00;;;8.70;99.90;;;;;;5056312;28;20466;-59
2021/11/02 01:58:12;;;;;;;7.40;3.73;;;8.70;1.00;;;;;;5056192;28;20462;-56
2021/11/02 02:00:40;;;;;;;5.30;2.80;;;8.70;1.00;;;;;;5056256;28;20454;-58
2021/11/02 02:03:15;;;;;;;5.33;3.20;;;8.70;1.00;;;;;;5056492;28;20833;-59
2021/11/02 02:05:54;;;;;;;8.33;3.47;;;8.70;1.00;;;;;;5055897;28;20489;-59
2021/11/02 02:08:26;;;;;;;5.50;3.57;;;8.70;1.00;;;;;;5056197;28;20468;-59
2021/11/02 02:11:01;;;;;;;12.07;5.20;;;8.70;1.00;;;;;;5056585;28;20436;-58
2021/11/02 02:13:39;;;;;;;6.20;3.77;;;8.70;1.00;;;;;;5055934;28;20870;-58
2021/11/02 02:16:13;;;;;;;6.23;2.93;;;8.70;1.00;;;;;;5056022;28;20465;-57
2021/11/02 02:18:46;;;;;;;8.37;4.33;;;8.60;1.00;;;;;;5056267;28;20505;-58
2021/11/02 02:21:33;;;;;;;6.40;3.10;;;8.60;1.00;;;;;;5055822;28;20494;-59
2021/11/02 02:24:14;;;;;;;5.83;3.53;;;8.60;1.00;;;;;;5056346;28;20785;-59
2021/11/02 02:26:55;;;;;;;7.40;4.40;;;8.60;1.00;;;;;;5056588;28;20465;-59
2021/11/02 02:29:25;;;;;;;8.40;4.40;;;8.60;1.00;;;;;;5055709;28;20436;-58
2021/11/02 02:31:53;;;;;;;8.10;3.10;;;8.50;1.00;;;;;;5055929;28;20462;-53
2021/11/02 02:34:22;;;;;;;5.30;3.03;;;8.50;1.00;;;;;;5055836;28;20514;-59
2021/11/02 02:36:51;;;;;;;6.73;3.30;;;8.50;1.00;;;;;;5055990;28;20471;-57
2021/11/02 02:39:19;;;;;;;7.93;4.07;;;8.40;1.00;;;;;;5056048;28;20776;-59
2021/11/02 02:41:48;;;;;;;6.40;3.87;;;8.30;91.50;;;;;;5055985;28;20756;-57
2021/11/02 02:44:17;;;;;;;8.23;4.10;;;8.30;99.90;;;;;;5056438;28;20452;-55
2021/11/02 02:46:47;;;;;;;9.03;3.90;;;8.20;99.90;;;;;;5055914;28;20535;-57
2021/11/02 02:49:14;;;;;;;5.20;4.00;;;8.20;1.00;;;;;;5057909;28;20462;-59
2021/11/02 02:51:43;;;;;;;9.20;4.83;;;8.10;1.00;;;;;;5059181;28;20462;-59
2021/11/02 02:54:12;;;;;;;6.07;3.60;;;8.10;99.90;;;;;;5059243;28;20493;-59
2021/11/02 02:56:43;;;;;;;4.60;3.30;;;8.10;99.90;;;;;;5059400;28;20436;-59
2021/11/02 02:59:11;;;;;;;9.50;4.30;;;8.10;99.90;;;;;;5059848;28;20939;-59
2021/11/02 03:01:39;;;;;;;8.57;3.63;;;8.00;99.90;;;;;;5059375;28;20516;-59
2021/11/02 03:04:10;;;;;;;6.80;3.50;;;8.00;1.00;;;;;;5059467;28;20884;-59
2021/11/02 03:06:45;;;;;;;5.43;3.00;;;7.90;99.90;;;;;;5058952;28;20489;-59
2021/11/02 03:09:12;;;;;;;8.00;2.90;;;7.80;99.90;;;;;;5059013;28;20480;-58
2021/11/02 03:11:40;;;;;;;5.90;3.27;;;7.80;1.00;;;;;;5059477;28;20458;-55
2021/11/02 03:14:11;;;;;;;8.80;3.30;;;7.80;99.90;;;;;;5058993;28;20497;-57
2021/11/02 03:16:52;;;;;;;6.53;3.40;;;7.80;99.90;;;;;;5059488;28;20466;-56
2021/11/02 03:20:05;;;;;;;7.00;3.87;;;7.80;99.90;;;;;;5058679;28;20858;-59
2021/11/02 03:50:37;;;;;;;5.57;2.83;;;7.80;1.00;;;;;;5045461;28;20413;-55
2021/11/02 03:56:02;;;;;;;5.23;2.73;;;7.70;1.00;;;;;;5057963;28;20454;-58
2021/11/02 03:58:34;;;;;;;5.33;3.00;;;7.60;99.90;;;;;;5058690;28;20470;-57
2021/11/02 04:01:26;;;;;;;10.37;2.80;;;7.60;16.60;;;;;;5057665;28;20466;-58
2021/11/02 04:43:34;;;;;;;5.83;3.77;;;6.90;15.80;;;;;;5057703;28;20429;-59
2021/11/02 05:47:30;;;;;;;5.17;3.93;;;6.90;99.90;;;;;;5050710;28;20500;-59
2021/11/02 05:50:05;;;;;;;6.77;3.13;;;6.90;99.90;;;;;;5056200;28;20504;-59
2021/11/02 05:53:07;;;;;;;4.73;3.80;;;6.80;99.90;;;;;;5050169;28;20560;-56
2021/11/02 05:55:58;;;;;;;6.00;3.60;;;6.90;1.00;;;;;;5051977;28;20446;-59
2021/11/02 05:58:29;;;;;;;5.30;3.60;;;6.90;99.90;;;;;;5054418;28;20458;-57
2021/11/02 06:01:03;;;;;;;5.67;3.00;;;6.90;99.90;;;;;;5051429;28;20537;-59
2021/11/02 06:03:39;;;;;;;9.07;3.43;;;6.80;99.90;;;;;;5044699;28;20555;-55
2021/11/02 06:06:18;;;;;;;6.60;3.50;;;6.80;99.90;;;;;;5047145;28;20592;-59
2021/11/02 06:23:43;;;;;;;7.87;5.70;;;6.60;1.00;;;;;;5068238;28;20467;-57
2021/11/02 06:29:05;;;;;;;6.37;4.13;;;6.60;1.00;;;;;;5015263;28;20442;-59
2021/11/02 06:31:34;;;;;;;6.63;5.17;;;6.60;99.90;;;;;;5058461;28;20830;-59
2021/11/02 06:34:08;;;;;;;8.73;5.40;;;6.60;24.00;;;;;;5060313;28;20551;-59
2021/11/02 06:37:20;;;;;;;19.37;13.40;;;6.60;99.90;;;;;;5060941;28;20986;-59
2021/11/02 06:40:14;;;;;;;13.30;9.20;;;6.50;1.00;;;;;;5059023;28;20778;-58
2021/11/02 06:43:06;;;;;;;22.40;15.63;;;6.50;99.90;;;;;;5059653;28;20500;-57
2021/11/02 06:45:59;;;;;;;8.80;7.90;;;6.50;1.00;;;;;;5057065;28;20469;-54
2021/11/02 06:48:48;;;;;;;8.33;5.90;;;6.60;99.90;;;;;;5059464;28;20458;-55
2021/11/02 07:17:21;;;;;;;4.60;2.80;;;7.10;99.90;;;;;;5058785;28;20441;-57
2021/11/02 07:19:58;;;;;;;6.33;4.07;;;7.10;99.90;;;;;;5058487;28;20558;-58
2021/11/02 07:25:27;;;;;;;11.93;9.90;;;7.10;90.20;;;;;;5055434;28;20458;-59
2021/11/02 08:46:34;;;;;;;5.30;2.43;;;8.60;1.00;;;;;;5057073;28;20799;-54
2021/11/02 08:49:03;;;;;;;3.57;2.70;;;8.70;1.00;;;;;;5057851;28;20465;-54
2021/11/02 08:51:30;;;;;;;3.60;2.20;;;8.70;1.00;;;;;;5057519;28;20782;-58
2021/11/02 08:54:03;;;;;;;2.90;2.17;;;8.70;1.00;;;;;;5057075;28;20497;-55
2021/11/02 08:56:30;;;;;;;5.97;2.57;;;8.70;1.00;;;;;;5057467;28;20758;-57
2021/11/02 08:59:03;;;;;;;6.27;2.43;;;8.80;1.00;;;;;;5057835;28;20470;-58
2021/11/02 09:01:36;;;;;;;5.50;2.23;;;8.80;1.00;;;;;;5057587;28;20927;-54
2021/11/02 09:04:05;;;;;;;3.83;2.10;;;8.80;1.00;;;;;;5057436;28;20465;-57
2021/11/02 09:06:32;;;;;;;3.27;2.33;;;8.80;1.00;;;;;;5056829;28;20588;-58
2021/11/02 09:09:06;;;;;;;3.23;2.47;;;8.80;1.00;;;;;;5057719;28;20466;-57
2021/11/02 09:11:42;;;;;;;9.53;2.30;;;8.90;1.00;;;;;;5057312;28;20512;-58
2021/11/02 09:14:12;;;;;;;3.83;2.20;;;8.80;1.00;;;;;;5057139;28;20530;-54
2021/11/02 09:16:42;;;;;;;4.57;2.63;;;8.90;1.00;;;;;;5056974;28;20452;-58
2021/11/02 09:19:15;;;;;;;3.90;2.40;;;9.00;1.00;;;;;;5057722;28;20884;-57
2021/11/02 09:21:43;;;;;;;5.13;2.80;;;9.10;1.00;;;;;;5057182;28;20461;-58
2021/11/02 09:24:15;;;;;;;5.10;2.50;;;9.20;1.00;;;;;;5057171;28;20466;-56
2021/11/02 09:26:45;;;;;;;3.40;2.27;;;9.60;1.00;;;;;;5060930;28;20473;-56
2021/11/02 09:29:14;;;;;;;4.57;2.30;;;10.10;1.00;;;;;;5053364;28;20433;-56
2021/11/02 09:31:42;;;;;;;4.40;2.20;;;10.40;1.00;;;;;;5064906;28;20443;-56
2021/11/02 09:34:09;;;;;;;4.83;2.40;;;10.50;1.00;;;;;;5064827;28;20496;-54
2021/11/02 09:36:42;;;;;;;3.73;2.10;;;10.80;1.00;;;;;;5063827;28;20465;-56
2021/11/02 09:39:14;;;;;;;6.30;2.63;;;11.10;1.00;;;;;;5063002;28;20468;-57
2021/11/02 09:42:14;;;;;;;6.03;1.90;;;11.30;99.90;;;;;;5062766;28;20720;-58
2021/11/02 09:45:13;;;;;;;2.30;2.10;;;11.30;99.90;;;;;;5061379;28;20461;-56
2021/11/02 09:48:28;;;;;;;4.40;2.87;;;11.30;99.90;;;;;;5056970;28;20458;-58
2021/11/02 09:51:40;;;;;;;4.40;2.10;;;11.40;99.90;;;;;;5056687;28;20458;-56
2021/11/02 09:54:37;;;;;;;3.57;2.07;;;11.60;99.90;;;;;;5056886;28;20494;-59
2021/11/02 09:57:28;;;;;;;3.60;2.53;;;11.50;99.90;;;;;;5056854;28;20447;-58
2021/11/02 10:00:08;;;;;;;3.70;2.20;;;11.90;99.90;;;;;;5059095;28;20524;-54
2021/11/02 10:03:09;;;;;;;4.67;2.47;;;12.00;99.90;;;;;;5041619;28;20747;-58
2021/11/02 10:06:00;;;;;;;4.77;1.90;;;11.70;99.90;;;;;;5060490;28;20481;-57
2021/11/02 10:08:39;;;;;;;3.03;2.03;;;11.40;99.90;;;;;;5055491;28;20528;-60
2021/11/02 10:11:19;;;;;;;4.23;2.07;;;10.90;99.90;;;;;;5057548;28;20506;-59
2021/11/02 10:14:23;;;;;;;3.50;2.10;;;10.70;99.90;;;;;;5059454;28;20469;-59
2021/11/02 10:17:05;;;;;;;2.40;2.10;;;10.60;99.90;;;;;;4994341;28;20554;-58
2021/11/02 10:20:03;;;;;;;3.07;2.30;;;10.50;99.90;;;;;;5040307;28;20466;-59
2021/11/02 10:23:09;;;;;;;3.93;2.07;;;10.50;99.90;;;;;;5055435;28;20547;-59
2021/11/02 10:26:08;;;;;;;3.40;2.20;;;10.80;99.90;;;;;;5056005;28;20524;-59
2021/11/02 10:29:04;;;;;;;6.47;2.70;;;11.50;99.90;;;;;;5041309;28;20470;-58
2021/11/02 10:31:36;;;;;;;7.80;5.90;;;11.80;99.90;;;;;;5056595;28;20465;-59
2021/11/02 10:34:11;;;;;;;10.40;7.13;;;12.30;99.90;;;;;;5066567;28;20466;-59
2021/11/02 10:36:52;;;;;;;9.07;6.53;;;13.00;99.90;;;;;;5068941;28;20443;-57
2021/11/02 10:39:39;;;;;;;5.43;4.00;;;13.20;99.90;;;;;;5060221;28;20458;-59
2021/11/02 10:42:26;;;;;;;6.63;2.60;;;13.30;99.90;;;;;;5055529;28;20895;-59
2021/11/02 10:45:03;;;;;;;4.30;2.23;;;13.30;99.90;;;;;;5062442;28;20515;-59
2021/11/02 10:47:40;;;;;;;2.23;2.03;;;13.00;99.90;;;;;;5059372;28;20507;-59
2021/11/02 10:50:09;;;;;;;4.37;3.50;;;12.70;99.90;;;;;;5048286;28;20461;-59
2021/11/02 10:52:42;;;;;;;3.67;2.80;;;12.50;99.90;;;;;;5059858;28;20803;-59
2021/11/02 10:55:24;;;;;;;3.60;3.30;;;12.50;99.90;;;;;;5058038;28;20839;-59
2021/11/02 10:58:32;;;;;;;4.20;2.97;;;13.10;99.90;;;;;;5056889;28;20509;-59
2021/11/02 11:01:03;;;;;;;4.50;3.00;;;13.60;99.90;;;;;;5059343;28;20827;-59
2021/11/02 11:03:32;;;;;;;3.70;2.50;;;13.20;99.90;;;;;;5058292;28;20519;-59
2021/11/02 11:06:00;;;;;;;3.57;2.20;;;13.10;99.90;;;;;;5056916;28;20539;-59
2021/11/02 11:08:31;;;;;;;4.67;2.97;;;13.20;99.90;;;;;;5057511;28;20570;-58
2021/11/02 11:11:01;;;;;;;4.43;1.77;;;13.30;99.90;;;;;;5055864;28;20556;-57
2021/11/02 11:13:32;;;;;;;1.93;1.70;;;13.30;99.90;;;;;;5056372;28;20564;-56
2021/11/02 11:16:08;;;;;;;1.80;1.70;;;13.60;99.90;;;;;;5058291;28;20514;-58
2021/11/02 11:18:58;;;;;;;2.90;1.97;;;13.70;99.90;;;;;;5064375;28;20462;-58
2021/11/02 11:21:27;;;;;;;2.00;1.80;;;13.50;99.90;;;;;;5057564;28;20474;-59
2021/11/02 11:24:06;;;;;;;2.47;1.90;;;13.00;99.90;;;;;;5059115;28;20469;-58
2021/11/02 11:26:36;;;;;;;4.27;2.10;;;12.60;99.90;;;;;;5059189;28;20454;-58
2021/11/02 11:29:06;;;;;;;2.97;1.90;;;12.40;99.90;;;;;;5059307;28;20454;-58
2021/11/02 11:31:40;;;;;;;2.43;2.03;;;12.50;99.90;;;;;;5058225;28;20460;-59
2021/11/02 11:34:08;;;;;;;3.30;1.80;;;12.90;99.90;;;;;;5058291;28;20461;-57
2021/11/02 11:36:45;;;;;;;3.20;2.20;;;12.70;99.90;;;;;;5058949;28;20494;-55
2021/11/02 11:39:18;;;;;;;2.60;1.97;;;12.80;99.90;;;;;;5058980;28;20519;-53
2021/11/02 11:41:51;;;;;;;2.20;1.73;;;13.10;99.90;;;;;;5059027;28;20459;-56
2021/11/02 11:44:23;;;;;;;2.07;1.40;;;13.10;99.90;;;;;;5058997;28;20776;-58
2021/11/02 11:47:07;;;;;;;2.03;1.60;;;13.00;99.90;;;;;;5059008;28;20462;-57
2021/11/02 11:49:37;;;;;;;1.70;1.60;;;12.80;99.90;;;;;;5059169;28;20798;-58
2021/11/02 11:52:08;;;;;;;2.43;1.70;;;12.50;99.90;;;;;;5058835;28;20463;-58
2021/11/02 11:54:46;;;;;;;2.10;1.83;;;12.10;99.90;;;;;;5059078;28;20761;-54
2021/11/02 11:57:15;;;;;;;2.23;2.00;;;11.90;99.90;;;;;;5058605;28;20466;-55
2021/11/02 11:59:43;;;;;;;5.03;1.57;;;11.80;99.90;;;;;;5058734;28;20464;-54
2021/11/02 12:02:25;;;;;;;2.33;1.60;;;11.60;99.90;;;;;;5057972;28;20441;-56
2021/11/02 12:04:56;;;;;;;1.97;1.80;;;11.30;99.90;;;;;;5058478;28;20458;-52
2021/11/02 12:07:35;;;;;;;4.03;1.90;;;11.00;99.90;;;;;;5057802;28;20494;-53
2021/11/02 12:10:09;;;;;;;2.20;2.00;;;10.80;99.90;;;;;;5058061;28;20444;-51
2021/11/02 12:12:40;;;;;;;3.00;2.40;;;10.70;99.90;;;;;;5058785;28;20476;-55
2021/11/02 12:15:12;;;;;;;2.63;2.20;;;10.50;99.90;;;;;;5058779;28;20759;-52
2021/11/02 12:17:44;;;;;;;3.53;2.50;;;10.50;99.90;;;;;;5057251;28;20497;-54
2021/11/02 12:20:15;;;;;;;7.60;5.13;;;10.60;99.90;;;;;;5055948;28;20510;-53
2021/11/02 12:22:51;;;;;;;8.57;6.20;;;10.60;99.90;;;;;;5057258;28;20810;-57
2021/11/02 12:25:25;;;;;;;6.33;4.40;;;10.80;99.90;;;;;;5056325;28;20489;-57
2021/11/02 12:27:57;;;;;;;8.00;3.97;;;10.90;99.90;;;;;;5057311;28;20466;-57
2021/11/02 12:30:24;;;;;;;6.90;4.77;;;11.10;99.90;;;;;;5056565;28;20436;-58
2021/11/02 12:32:57;;;;;;;8.60;5.33;;;11.40;99.90;;;;;;5057612;28;20888;-54
2021/11/02 12:35:52;;;;;;;6.70;4.00;;;11.40;99.90;;;;;;5056663;28;20473;-55
2021/11/02 12:38:29;;;;;;;2.80;2.60;;;11.20;99.90;;;;;;5048856;28;20917;-56
2021/11/02 12:40:56;;;;;;;4.20;2.53;;;11.10;99.90;;;;;;5057101;28;20474;-54
2021/11/02 12:43:25;;;;;;;6.43;4.37;;;11.10;99.90;;;;;;5056697;28;20494;-57
2021/11/02 12:45:53;;;;;;;4.03;2.17;;;11.10;99.90;;;;;;5055655;28;20463;-56
2021/11/02 12:48:23;;;;;;;2.10;1.90;;;11.00;99.90;;;;;;5057245;28;20479;-58
2021/11/02 12:50:54;;;;;;;8.33;3.70;;;11.10;99.90;;;;;;5057167;28;20466;-54
2021/11/02 12:53:24;;;;;;;3.50;2.03;;;11.10;99.90;;;;;;5057029;28;20494;-55
2021/11/02 12:55:55;;;;;;;5.83;4.17;;;11.40;99.90;;;;;;5057082;28;20473;-54
2021/11/02 12:58:24;;;;;;;3.77;1.87;;;11.70;99.90;;;;;;5057436;28;20584;-51
2021/11/02 13:00:53;;;;;;;1.97;1.77;;;12.30;99.90;;;;;;5061876;28;20470;-56
2021/11/02 13:03:28;;;;;;;5.17;4.67;;;12.50;99.90;;;;;;5077657;28;20472;-55
2021/11/02 13:05:58;;;;;;;4.87;3.10;;;12.70;99.90;;;;;;5058966;28;20460;-51
2021/11/02 13:08:42;;;;;;;4.33;3.30;;;12.50;99.90;;;;;;5057056;28;20437;-51
2021/11/02 13:11:11;;;;;;;4.97;3.00;;;12.10;99.90;;;;;;5054727;28;20548;-53
2021/11/02 13:14:10;;;;;;;2.80;2.60;;;11.80;99.90;;;;;;5057157;28;20433;-54
2021/11/02 13:17:00;;;;;;;3.97;3.57;;;11.30;99.90;;;;;;5054591;28;20509;-57
2021/11/02 13:19:37;;;;;;;5.40;3.67;;;11.30;99.90;;;;;;5056363;28;20811;-54
2021/11/02 13:22:10;;;;;;;3.90;3.10;;;11.50;99.90;;;;;;5052310;28;20478;-56
2021/11/02 13:24:40;;;;;;;2.00;1.80;;;11.50;99.90;;;;;;5046092;28;20447;-52
2021/11/02 13:27:11;;;;;;;6.60;4.37;;;11.50;99.90;;;;;;5052295;28;20458;-51
2021/11/02 13:29:38;;;;;;;2.30;1.90;;;11.40;99.90;;;;;;5053551;28;20862;-57
2021/11/02 13:32:06;;;;;;;4.93;4.30;;;11.40;99.90;;;;;;5055704;28;20892;-57
2021/11/02 13:34:38;;;;;;;3.20;3.00;;;11.40;99.90;;;;;;5057338;28;20429;-56
2021/11/02 13:37:10;;;;;;;2.93;2.70;;;11.10;99.90;;;;;;5053679;28;20482;-58
2021/11/02 13:39:58;;;;;;;3.03;2.60;;;11.10;99.90;;;;;;5036915;28;20532;-53
2021/11/02 13:42:50;;;;;;;2.33;1.93;;;11.20;99.90;;;;;;5037421;28;20442;-52
2021/11/02 13:45:24;;;;;;;3.27;2.30;;;11.30;99.90;;;;;;5036171;28;20459;-56
2021/11/02 13:47:51;;;;;;;3.30;2.40;;;11.40;99.90;;;;;;5037414;28;20467;-54
2021/11/02 13:50:20;;;;;;;2.30;2.07;;;11.60;99.90;;;;;;5037094;28;20512;-54
2021/11/02 13:52:52;;;;;;;2.30;2.10;;;11.60;99.90;;;;;;5037289;28;20517;-55
2021/11/02 13:55:19;;;;;;;3.13;2.20;;;11.60;99.90;;;;;;5037051;28;20495;-53
2021/11/02 13:57:46;;;;;;;2.50;2.30;;;11.50;99.90;;;;;;5037152;28;20475;-54
2021/11/02 14:00:15;;;;;;;2.80;2.00;;;11.40;99.90;;;;;;5038282;28;20463;-55
2021/11/02 14:02:46;;;;;;;3.53;2.80;;;11.40;99.90;;;;;;5077038;28;20892;-53
2021/11/02 14:05:14;;;;;;;5.87;3.03;;;11.30;99.90;;;;;;5076172;28;20519;-54
2021/11/02 14:07:45;;;;;;;2.73;2.43;;;11.30;99.90;;;;;;5076859;28;20890;-53
2021/11/02 14:10:15;;;;;;;2.90;2.40;;;11.30;99.90;;;;;;5076867;28;20436;-50
2021/11/02 14:12:52;;;;;;;3.10;2.03;;;11.30;99.90;;;;;;5076879;28;20824;-50
2021/11/02 14:15:21;;;;;;;3.83;3.03;;;11.10;99.90;;;;;;5076355;28;20465;-55
2021/11/02 14:18:08;;;;;;;6.73;4.37;;;11.00;99.90;;;;;;5076250;28;20469;-50
2021/11/02 14:20:37;;;;;;;4.50;2.90;;;10.90;99.90;;;;;;5069565;28;20496;-50
2021/11/02 14:23:07;;;;;;;4.23;2.83;;;10.80;99.90;;;;;;5056662;28;20437;-54
2021/11/02 14:25:36;;;;;;;3.33;2.50;;;10.60;99.90;;;;;;5055904;28;20486;-51
2021/11/02 14:28:07;;;;;;;3.17;2.20;;;10.60;1.00;;;;;;5057200;28;20437;-50
2021/11/02 14:30:41;;;;;;;2.70;2.50;;;10.40;1.00;;;;;;5056794;28;20433;-52
2021/11/02 14:33:09;;;;;;;6.53;3.40;;;10.40;1.00;;;;;;5056914;28;20531;-52
2021/11/02 14:36:01;;;;;;;4.27;2.90;;;10.30;1.00;;;;;;5056289;28;20456;-54
2021/11/02 14:38:43;;;;;;;8.47;4.30;;;10.20;1.00;;;;;;5056841;28;20466;-52
2021/11/02 14:41:35;;;;;;;6.87;4.57;;;10.10;1.00;;;;;;5048736;28;20778;-53
2021/11/02 14:44:24;;;;;;;3.97;2.90;;;10.10;1.00;;;;;;5046984;28;20458;-48
2021/11/02 14:46:58;;;;;;;5.60;3.27;;;10.10;1.00;;;;;;5050814;28;20442;-55
2021/11/02 14:49:45;;;;;;;5.67;2.60;;;10.10;1.00;;;;;;5050363;28;20823;-55
2021/11/02 14:52:24;;;;;;;3.10;2.80;;;10.10;1.00;;;;;;5048803;28;20458;-53
2021/11/02 14:54:56;;;;;;;2.63;2.30;;;10.10;1.00;;;;;;5048550;28;20453;-54
2021/11/02 14:57:52;;;;;;;2.90;2.20;;;10.10;1.00;;;;;;5047728;28;20548;-54
2021/11/02 15:00:43;;;;;;;4.07;2.50;;;10.00;1.00;;;;;;5052878;28;20553;-55
2021/11/02 15:03:21;;;;;;;2.30;2.00;;;10.00;1.00;;;;;;5049313;28;20458;-53
2021/11/02 15:06:02;;;;;;;2.57;1.80;;;9.90;1.00;;;;;;5049158;28;20474;-55
2021/11/02 15:08:30;;;;;;;2.53;2.30;;;9.90;1.00;;;;;;5049234;28;20457;-53
2021/11/02 15:11:08;;;;;;;3.97;2.10;;;9.80;1.00;;;;;;5048863;28;20459;-51
2021/11/02 15:13:38;;;;;;;2.50;1.83;;;9.70;1.00;;;;;;5049368;28;20457;-54
2021/11/02 15:16:08;;;;;;;2.63;1.63;;;9.70;1.00;;;;;;5049513;28;20914;-53
2021/11/02 15:18:45;;;;;;;1.73;1.63;;;9.60;1.00;;;;;;5047979;28;20459;-50
2021/11/02 15:21:17;;;;;;;1.87;1.77;;;9.60;1.00;;;;;;5049622;28;20956;-54
2021/11/02 15:23:46;;;;;;;2.13;2.00;;;9.50;1.00;;;;;;5047468;28;20462;-57
2021/11/02 15:26:16;;;;;;;3.17;1.93;;;9.50;1.00;;;;;;5049511;28;20450;-54
2021/11/02 15:28:46;;;;;;;1.90;1.70;;;9.40;1.00;;;;;;5047018;28;20459;-55
2021/11/02 15:31:22;;;;;;;5.27;3.90;;;9.40;1.00;;;;;;5047485;28;20516;-50
2021/11/02 15:33:50;;;;;;;7.40;4.97;;;9.40;1.00;;;;;;5048865;28;20497;-57
2021/11/02 15:36:21;;;;;;;20.00;11.00;;;9.30;1.00;;;;;;5048003;28;20470;-56
2021/11/02 15:39:00;;;;;;;63.03;29.33;;;9.50;1.00;;;;;;5046435;28;20808;-56
2021/11/02 15:41:33;;;;;;;37.77;19.50;;;9.40;1.00;;;;;;5045495;28;20515;-59
2021/11/02 15:44:05;;;;;;;14.77;8.13;;;9.30;1.00;;;;;;5048551;28;20470;-60
2021/11/02 15:46:35;;;;;;;36.90;18.83;;;9.30;1.00;;;;;;5046107;28;20492;-58
2021/11/02 15:49:04;;;;;;;11.27;7.50;;;9.20;43.10;;;;;;5044927;28;20433;-58
2021/11/02 15:51:36;;;;;;;12.13;8.33;;;9.30;99.90;;;;;;5047453;28;20716;-55
2021/11/02 15:54:11;;;;;;;10.47;6.77;;;9.20;99.90;;;;;;5047830;28;20533;-58
2021/11/02 15:56:41;;;;;;;10.70;8.47;;;9.10;99.90;;;;;;5046775;28;20996;-59
2021/11/02 15:59:10;;;;;;;10.27;5.00;;;9.10;99.90;;;;;;5130935;22;20476;-58
2021/11/02 16:01:42;;;;;;;17.37;11.50;;;8.90;99.90;;;;;;5081950;28;21169;-58
2021/11/02 16:04:22;;;;;;;5.87;3.60;;;9.00;99.90;;;;;;5084435;28;20470;-55
2021/11/02 16:07:17;;;;;;;11.23;6.33;;;8.90;1.00;;;;;;5080685;28;20548;-56
2021/11/02 16:09:48;;;;;;;15.47;9.53;;;9.00;1.00;;;;;;5088851;28;20881;-59
2021/11/02 16:12:24;;;;;;;69.70;35.70;;;9.00;1.00;;;;;;5077838;28;20496;-56
2021/11/02 16:15:00;;;;;;;16.03;10.70;;;9.10;1.00;;;;;;5087978;28;20461;-56
2021/11/02 16:17:32;;;;;;;13.13;10.67;;;9.00;1.00;;;;;;5079154;28;20909;-59
2021/11/02 16:20:00;;;;;;;11.47;7.00;;;8.90;1.00;;;;;;5084715;28;20474;-55
2021/11/02 16:22:27;;;;;;;13.63;9.27;;;8.90;99.90;;;;;;5083286;28;20570;-56
2021/11/02 16:25:10;;;;;;;5.70;4.43;;;8.80;1.00;;;;;;5082531;28;20449;-59
2021/11/02 16:27:57;;;;;;;4.77;3.90;;;8.80;99.90;;;;;;5082639;28;20424;-58
2021/11/02 16:30:28;;;;;;;3.20;2.90;;;8.80;99.90;;;;;;5081557;28;20572;-58
2021/11/02 16:33:03;;;;;;;4.37;3.80;;;8.70;1.00;;;;;;5081593;28;20523;-59
2021/11/02 16:35:32;;;;;;;3.87;3.47;;;8.60;99.90;;;;;;5087738;28;20431;-61
2021/11/02 16:38:22;;;;;;;3.00;2.70;;;8.60;99.90;;;;;;5086845;28;20489;-60
2021/11/02 16:40:50;;;;;;;4.10;3.07;;;8.60;1.00;;;;;;5081651;28;20464;-61
2021/11/02 16:43:31;;;;;;;2.93;2.73;;;8.50;99.90;;;;;;5085724;28;20474;-60
2021/11/02 16:45:59;;;;;;;4.10;3.70;;;8.50;99.90;;;;;;5084427;28;20465;-59
2021/11/02 16:48:45;;;;;;;2.90;2.60;;;8.40;99.90;;;;;;5086114;28;20467;-61
2021/11/02 16:51:19;;;;;;;3.63;3.23;;;8.30;1.00;;;;;;5085599;28;20998;-61
2021/11/02 16:53:46;;;;;;;3.47;2.10;;;8.30;1.00;;;;;;5087987;28;20514;-62
2021/11/02 16:56:23;;;;;;;4.03;3.00;;;8.20;1.00;;;;;;5083928;28;20892;-61
2021/11/02 16:58:53;;;;;;;2.90;2.70;;;8.20;1.00;;;;;;5085435;28;20489;-62
2021/11/02 17:01:34;;;;;;;2.53;2.30;;;8.10;1.00;;;;;;5084079;28;20816;-62
2021/11/02 17:04:12;;;;;;;2.30;2.07;;;8.20;1.00;;;;;;5085009;28;20565;-62
2021/11/02 17:06:41;;;;;;;2.27;1.90;;;8.20;1.00;;;;;;5084506;28;20443;-62
2021/11/02 17:09:24;;;;;;;1.90;1.70;;;8.20;99.90;;;;;;5084120;28;20457;-62
2021/11/02 17:11:58;;;;;;;3.87;2.13;;;8.20;99.90;;;;;;5085856;28;20502;-63
2021/11/02 17:14:28;;;;;;;3.23;2.93;;;8.20;99.90;;;;;;5086425;28;20462;-62
2021/11/02 17:16:59;;;;;;;2.20;2.00;;;8.20;99.90;;;;;;5082761;28;20489;-62
2021/11/02 17:19:27;;;;;;;2.50;2.30;;;8.10;99.90;;;;;;5085521;28;20788;-62
2021/11/02 17:21:57;;;;;;;2.73;1.90;;;8.10;1.00;;;;;;5079297;28;20461;-62
2021/11/02 17:24:25;;;;;;;2.40;2.20;;;8.10;1.00;;;;;;5079678;28;20511;-63
2021/11/02 17:26:53;;;;;;;2.90;2.40;;;8.10;1.00;;;;;;5083195;28;20468;-62
2021/11/02 17:29:20;;;;;;;4.10;2.17;;;8.10;67.80;;;;;;5086468;28;20980;-62
2021/11/02 17:31:52;;;;;;;10.07;2.60;;;8.10;99.90;;;;;;5087285;28;20461;-61
2021/11/02 17:34:24;;;;;;;2.73;2.43;;;8.10;99.90;;;;;;5084385;28;20453;-62
2021/11/02 17:36:57;;;;;;;3.23;2.43;;;8.10;1.00;;;;;;5084160;28;20497;-62
2021/11/02 17:39:27;;;;;;;3.07;2.77;;;8.10;1.00;;;;;;5085345;28;20882;-62
2021/11/02 17:41:57;;;;;;;3.20;2.67;;;8.00;99.90;;;;;;5081817;28;20515;-62
2021/11/02 17:44:31;;;;;;;4.00;3.70;;;8.00;1.00;;;;;;5085666;28;20457;-62
2021/11/02 17:47:00;;;;;;;16.50;14.67;;;8.00;1.00;;;;;;5082701;28;20453;-62
2021/11/02 17:49:28;;;;;;;17.57;15.83;;;8.00;54.70;;;;;;5084780;28;20519;-62
2021/11/02 17:51:57;;;;;;;8.27;7.57;;;8.00;1.00;;;;;;5085523;28;20457;-63